Deinze - De Groote

EBDZ · Oost-Vlaanderen, Flanders, 比利时

METAR的历史 EBDZ · Deinze - De Groote

下面你可以看到过去几天的METARs。 选择年份以浏览从2007年开始的旧METAR。

2024年7月17日

时间 代码 天气 温度 能见度 天花板 METAR/SPECI
11:55
M
19 °C 10 km+ 1.600 ft 200° 200° 6 kt METAR EBCV 170955Z AUTO 20006KT 9999 SCT013/// BKN016/// 19/15 Q1021 GRN
11:25
M
18 °C 10 km+ 1.600 ft 210° 210° 6 kt METAR EBCV 170925Z AUTO 21006KT 9999 SCT011/// OVC016/// 18/16 Q1021 GRN
10:55
M
18 °C 10 km+ 1.100 ft 210° 210° 5 kt METAR EBCV 170855Z AUTO 21005KT 9999 FEW009/// BKN011/// BKN014/// 18/15 Q1021 GRN
10:25
M
17 °C 10 km+ 1.100 ft 220° 220° 5 kt METAR EBCV 170825Z AUTO 22005KT 9999 SCT008/// OVC011/// 17/15 Q1021 GRN
09:55
I
17 °C 10 km+ 900 ft 190° 190° 7 kt METAR EBCV 170755Z AUTO 19007KT 9999 SCT007/// OVC009/// 17/15 Q1021 GRN
09:25
I
17 °C 10 km+ 900 ft 200° 200° 6 kt METAR EBCV 170725Z AUTO 20006KT 9999 BKN009/// BKN011/// 17/15 Q1020 GRN
08:55
I
17 °C 10 km+ 800 ft 200° 200° 4 kt METAR EBCV 170655Z AUTO 20004KT 9999 OVC008/// 17/15 Q1020 GRN
08:25
I
17 °C 10 km+ 800 ft 220° 220° 4 kt METAR EBCV 170625Z AUTO 22004KT 9999 OVC008/// 17/15 Q1020 GRN
07:55
I
16 °C 10 km+ 800 ft 220° 220° 5 kt METAR EBCV 170555Z AUTO 22005KT 9999 BKN008/// 16/15 Q1019 GRN
07:25
I
16 °C 10 km+ 800 ft 230° 230° 5 kt METAR EBCV 170525Z AUTO 23005KT 9999 OVC008/// 16/15 Q1019 GRN
06:55
I
16 °C 10 km+ 900 ft 220° 220° 6 kt METAR EBCV 170455Z AUTO 22006KT 9999 OVC009/// 16/15 Q1019 GRN
06:25
I
16 °C 10 km+ 900 ft 220° 220° 6 kt METAR EBCV 170425Z AUTO 22006KT 9999 BKN009/// 16/14 Q1019 GRN
05:55
M
16 °C 10 km+ 1.000 ft 220° 220° 4 kt METAR EBCV 170355Z AUTO 22004KT 9999 OVC010/// 16/14 Q1018 GRN
05:25
M
16 °C 10 km+ 1.100 ft 220° 220° 5 kt METAR EBCV 170325Z AUTO 22005KT 9999 OVC011/// 16/14 Q1018 GRN
04:55
M
16 °C 10 km+ 1.100 ft 210° 210° 4 kt METAR EBCV 170255Z AUTO 21004KT 9999 BKN011/// BKN095/// 16/14 Q1018 GRN
04:25
V
16 °C 10 km+ 6.500 ft 230° 230° 5 kt METAR EBCV 170225Z AUTO 23005KT 9999 SCT011/// BKN065/// BKN110/// 16/14 Q1017 GRN
03:55
M
16 °C 10 km+ 1.200 ft 220° 220° 5 kt METAR EBCV 170155Z AUTO 22005KT 9999 BKN012/// BKN019/// 16/14 Q1017 GRN
03:25
M
16 °C 10 km+ 1.200 ft 230° 230° 5 kt METAR EBCV 170125Z AUTO 23005KT 9999 OVC012/// 16/14 Q1017 GRN
02:55
M
16 °C 10 km+ 1.300 ft 230° 230° 5 kt METAR EBCV 170055Z AUTO 23005KT 9999 BKN013/// BKN016/// OVC110/// 16/14 Q1017 GRN
02:40
V
16 °C 10 km+ 8.500 ft 230° 230° 6 kt METAR EBCV 170040Z AUTO 23006KT 9999 SCT014/// BKN085/// BKN100/// 16/14 Q1017 GRN
02:35
V
16 °C 10 km+ 8.500 ft 230° 230° 6 kt METAR EBCV 170035Z AUTO 23006KT 9999 SCT015/// BKN085/// BKN100/// 16/14 Q1017 WHT
02:25
V
16 °C 10 km+ 8.500 ft 230° 230° 6 kt METAR EBCV 170025Z AUTO 23006KT 9999 FEW016/// BKN085/// BKN100/// 16/14 Q1017 BLU
01:55
V
16 °C 10 km+ 9.000 ft 230° 230° 7 kt METAR EBCV 162355Z AUTO 23007KT 9999 FEW018/// SCT070/// OVC090/// 16/14 Q1017 BLU
01:25
M
16 °C 10 km+ 1.700 ft 230° 230° 6 kt METAR EBCV 162325Z AUTO 23006KT 9999 BKN017/// OVC095/// 16/14 Q1016 WHT
01:11
V
16 °C 10 km+ 8.500 ft 220° 220° 7 kt METAR EBCV 162311Z AUTO 22007KT 9999 SCT017/// BKN085/// OVC100/// 16/14 Q1016 WHT
00:55
V
16 °C 10 km+ 9.000 ft 230° 230° 7 kt METAR EBCV 162255Z AUTO 23007KT 9999 FEW020/// SCT055/// BKN090/// 16/14 Q1016 BLU
00:25
V
16 °C 10 km+ 4.600 ft 220° 220° 6 kt METAR EBCV 162225Z AUTO 22006KT 9999 BKN046/// BKN085/// 16/14 Q1016 BLU

2024年7月16日

时间 代码 天气 温度 能见度 天花板 METAR/SPECI
23:55
V
16 °C 10 km+ 7.500 ft 220° 220° 8 kt METAR EBCV 162155Z AUTO 22008KT 9999 SCT046/// BKN075/// OVC100/// 16/14 Q1016 BLU
23:25
V
17 °C 10 km+ 4.600 ft 230° 230° 9 kt METAR EBCV 162125Z AUTO 23009KT 9999 BKN046/// BKN080/// 17/14 Q1016 BLU
22:55
V
17 °C 10 km+ 4.500 ft 240° 240° 8 kt METAR EBCV 162055Z AUTO 24008KT 9999 FEW035/// BKN045/// BKN080/// 17/14 Q1016 BLU
22:25
V
17 °C 10 km+ 4.300 ft 250° 250° 10 kt METAR EBCV 162025Z AUTO 25010KT 9999 FEW023/// BKN043/// BKN075/// 17/13 Q1016 BLU
21:55
M
17 °C 10 km+ 2.300 ft 240° 240° 8 kt METAR EBCV 161955Z AUTO 24008KT 9999 BKN023/// BKN110/// 17/14 Q1015 WHT
21:25
M
18 °C 10 km+ 2.800 ft 250° 250° 9 kt METAR EBCV 161925Z AUTO 25009KT 9999 SCT024/// BKN028/// OVC110/// 18/13 Q1015 WHT
20:55
M
18 °C 10 km+ 2.400 ft 240° 240° 10 kt METAR EBCV 161855Z AUTO 24010KT 9999 BKN024/// OVC100/// 18/13 Q1015 WHT
20:51
M
18 °C 10 km+ 2.400 ft 240° 240° 9 kt METAR EBCV 161851Z AUTO 24009KT 9999 BKN024/// BKN048/// OVC110/// 18/13 Q1015 WHT
20:25
V
18 °C 10 km+ 3.100 ft 250° 250° 10 kt METAR EBCV 161825Z AUTO 25010KT 9999 SCT025/// BKN031/// BKN050/// 18/13 Q1015 BLU
19:55
V
18 °C 10 km+ 4.300 ft 240° 240° 14 kt METAR EBCV 161755Z AUTO 24014KT 9999 FEW027/// SCT033/// BKN043/// 18/13 Q1014 BLU
19:25
V
18 °C 10 km+ 3.300 ft 250° 250° 14 kt METAR EBCV 161725Z AUTO 25014KT 9999 FEW028/// BKN033/// OVC048/// 18/13 Q1014 BLU
18:55
V
19 °C 10 km+ 3.700 ft 240° 240° 12 kt METAR EBCV 161655Z AUTO 24012KT 9999 FEW030/// BKN037/// BKN050/// 19/13 Q1014 BLU
18:25
V
19 °C 10 km+ 6.500 ft 230° 230° 12 kt METAR EBCV 161625Z AUTO 23012KT 9999 FEW027/// SCT039/// BKN065/// 19/15 Q1013 BLU
17:55
V
19 °C 10 km+ 4.800 ft 220° 220° 14 kt METAR EBCV 161555Z AUTO 22014KT 9999 FEW028/// SCT035/// BKN048/// 19/15 Q1013 BLU
17:25
V
20 °C 10 km+ 9.000 ft 240° 240° 14 kt METAR EBCV 161525Z AUTO 24014KT 9999 FEW025/// BKN090/// BKN150/// 20/14 Q1013 BLU
16:55
V
20 °C 10 km+ 12.000 ft 240° 240° 14 kt METAR EBCV 161455Z AUTO 24014KT 9999 FEW019/// SCT100/// BKN120/// 20/15 Q1013 BLU
16:46
V
19 °C 10 km+ 10.000 ft 230° 230° 14 kt METAR EBCV 161446Z AUTO 23014KT 9999 FEW019/// SCT080/// BKN100/// 19/15 Q1012 BLU
16:33
V
19 °C 10 km+ 6.000 ft 230° 230° 14 kt METAR EBCV 161433Z AUTO 23014KT 9999 FEW018/// SCT024/// BKN060/// 19/15 Q1012 WHT
16:25
V
19 °C 10 km+ 8.000 ft 240° 240° 14 kt METAR EBCV 161425Z AUTO 24014KT 9999 FEW016/// SCT025/// BKN080/// 19/15 Q1013 BLU
16:16
V
19 °C 10 km+ 8.000 ft 240° 240° 15 kt METAR EBCV 161416Z AUTO 24015KT 9999 FEW016/// SCT023/// BKN080/// 19/15 Q1012 WHT
15:55
M
19 °C 10 km+ 2.800 ft 230° 230° 14 kt METAR EBCV 161355Z AUTO 23014KT 9999 FEW016/// SCT020/// BKN028/// 19/15 Q1012 WHT
15:25
V
18 °C 10 km+ 7.000 ft 230° 230° 17 - 27 kt METAR EBCV 161325Z AUTO 23017G27KT 9999 -RA FEW025/// SCT048/// BKN070/// 18/15 Q1012 BLU
14:55
V
19 °C 10 km+ 8.000 ft 230° 230° 10 kt METAR EBCV 161255Z AUTO 23010KT 9999 FEW021/// BKN080/// BKN100/// 19/16 Q1012 BLU
14:33
M
17 °C 5 km 4.800 ft 220° 220° 12 kt METAR EBCV 161233Z AUTO 22012KT 5000 RA FEW017/// BKN048/// BKN150/// 17/15 Q1012 WHT
14:25
V
17 °C 8 km 5.000 ft 220° 220° 11 kt METAR EBCV 161225Z AUTO 22011KT 8000 -RA FEW016/// BKN050/// BKN210/// 17/14 Q1012 BLU
13:55
V
18 °C 10 km+ 3.500 ft 220° 220° 13 kt METAR EBCV 161155Z AUTO 22013KT 9999 FEW015/// SCT024/// BKN035/// 18/15 Q1012 WHT
13:51
V
18 °C 10 km+ 3.400 ft 220° 220° 13 kt METAR EBCV 161151Z AUTO 22013KT 9999 FEW015/// SCT024/// BKN034/// 18/15 Q1012 WHT
13:25
V
18 °C 10 km+ 14.000 ft 210° 210° 12 kt METAR EBCV 161125Z AUTO 21012KT 9999 FEW080/// SCT110/// BKN140/// 18/16 Q1012 BLU
12:55
V
17 °C 10 km+ 8.500 ft 210° 210° 12 kt METAR EBCV 161055Z AUTO 21012KT 9999 -RA FEW036/// BKN085/// BKN110/// 17/15 Q1012 BLU
12:25
V
16 °C 10 km+ 8.000 ft 220° 220° 14 kt METAR EBCV 161025Z AUTO 22014KT 9999 -RA FEW060/// BKN080/// OVC095/// 16/15 Q1011 BLU
11:55
V
17 °C 10 km+ 4.500 ft 220° 220° 12 kt METAR EBCV 160955Z AUTO 22012KT 9999 FEW024/// BKN045/// BKN095/// 17/15 Q1011 BLU
11:25
V
18 °C 10 km+ 5.000 ft 220° 220° 14 kt METAR EBCV 160925Z AUTO 22014KT 9999 -RA FEW023/// SCT028/// BKN050/// 18/14 Q1011 BLU
10:55
V
18 °C 10 km+ 5.000 ft 210° 210° 12 kt METAR EBCV 160855Z AUTO 21012KT 9999 FEW020/// SCT043/// BKN050/// 18/14 Q1011 BLU
10:25
V
18 °C 10 km+ 6.000 ft 210° 210° 11 kt METAR EBCV 160825Z AUTO 21011KT 9999 FEW018/// SCT036/// BKN060/// 18/14 Q1011 BLU
09:55
V
17 °C 10 km+ 3.100 ft 210° 210° 13 kt METAR EBCV 160755Z AUTO 21013KT 9999 FEW018/// SCT027/// BKN031/// 17/14 Q1011 BLU
09:25
M
17 °C 10 km+ 2.000 ft 210° 210° 12 kt METAR EBCV 160725Z AUTO 21012KT 9999 FEW015/// BKN020/// BKN110/// 17/14 Q1011 WHT
08:55
M
17 °C 10 km+ 2.300 ft 210° 210° 13 kt METAR EBCV 160655Z AUTO 21013KT 9999 FEW014/// SCT019/// BKN023/// 17/14 Q1010 WHT
08:41
V
17 °C 10 km+ 10.000 ft 210° 210° 12 kt METAR EBCV 160641Z AUTO 21012KT 9999 FEW014/// SCT023/// BKN100/// 17/14 Q1011 WHT
08:25
V
16 °C 10 km+ 6.500 ft 210° 210° 12 kt METAR EBCV 160625Z AUTO 21012KT 9999 FEW015/// SCT025/// BKN065/// 16/14 Q1011 BLU
07:55
V
16 °C 10 km+ 3.800 ft 200° 200° 11 kt METAR EBCV 160555Z AUTO 20011KT 9999 FEW026/// BKN038/// OVC100/// 16/14 Q1010 BLU
07:25
V
16 °C 10 km+ 10.000 ft 200° 200° 10 kt METAR EBCV 160525Z AUTO 20010KT 9999 SCT031/// BKN100/// BKN120/// 16/14 Q1010 BLU
06:55
V
15 °C 10 km+ 11.000 ft 190° 190° 7 kt METAR EBCV 160455Z AUTO 19007KT 9999 SCT033/// BKN110/// OVC120/// 15/14 Q1010 BLU
06:25
V
14 °C 10 km+ 11.000 ft 180° 180° 8 kt METAR EBCV 160425Z AUTO 18008KT 9999 FEW100/// BKN110/// OVC130/// 14/14 Q1009 BLU
05:55
V
14 °C 10 km+ 12.000 ft 190° 190° 8 kt METAR EBCV 160355Z AUTO 19008KT 9999 SCT100/// BKN120/// BKN130/// 14/13 Q1009 BLU
05:25
V
14 °C 10 km+ 10.000 ft 200° 200° 8 kt METAR EBCV 160325Z AUTO 20008KT 9999 BKN100/// OVC130/// 14/14 Q1009 BLU
04:55
V
15 °C 10 km+ 12.000 ft 220° 220° 8 kt METAR EBCV 160255Z AUTO 22008KT 9999 SCT100/// BKN120/// BKN130/// 15/14 Q1009 BLU
04:25
V
15 °C 10 km+ 12.000 ft 210° 210° 9 kt METAR EBCV 160225Z AUTO 21009KT 9999 SCT100/// BKN120/// 15/14 Q1009 BLU
03:55
V
16 °C 10 km+ 11.000 ft 230° 230° 12 kt METAR EBCV 160155Z AUTO 23012KT 9999 SCT100/// BKN110/// OVC130/// 16/14 Q1009 BLU
03:25
V
16 °C 10 km+ 11.000 ft 240° 240° 13 kt METAR EBCV 160125Z AUTO 24013KT 9999 SCT100/// BKN110/// OVC130/// 16/14 Q1009 BLU
02:55
V
17 °C 10 km+ 11.000 ft 230° 230° 10 kt METAR EBCV 160055Z AUTO 23010KT 9999 FEW013/// BKN110/// BKN120/// 17/15 Q1008 BLU
02:25
V
17 °C 10 km+ 10.000 ft 220° 220° 11 kt METAR EBCV 160025Z AUTO 22011KT 9999 FEW018/// SCT032/// BKN100/// 17/16 Q1008 BLU
01:55
V
18 °C 10 km+ 10.000 ft 220° 220° 10 kt METAR EBCV 152355Z AUTO 22010KT 9999 BKN100/// OVC120/// 18/17 Q1008 BLU
01:25
V
18 °C 10 km+ 10.000 ft 210° 210° 12 kt METAR EBCV 152325Z AUTO 21012KT 9999 FEW038/// BKN100/// BKN120/// 18/17 Q1008 BLU
00:55
V
18 °C 10 km+ 14.000 ft 190° 190° 6 kt METAR EBCV 152255Z AUTO 19006KT 9999 -RA FEW070/// SCT120/// BKN140/// 18/17 Q1007 BLU
00:25
V
18 °C 10 km+ 22.000 ft 190° 190° 6 kt METAR EBCV 152225Z AUTO 19006KT 9999 FEW100/// SCT120/// BKN220/// 18/17 Q1007 BLU

2024年7月15日

时间 代码 天气 温度 能见度 天花板 METAR/SPECI
23:55
V
17 °C 10 km+ 22.000 ft 190° 190° 7 kt METAR EBCV 152155Z AUTO 19007KT 9999 FEW110/// BKN220/// 17/17 Q1007 BLU
23:25
V
17 °C 10 km+ 22.000 ft 190° 190° 4 kt METAR EBCV 152125Z AUTO 19004KT 9999 FEW120/// BKN220/// 17/16 Q1007 BLU
22:55
V
17 °C 10 km+ 22.000 ft Var Var 2 kt METAR EBCV 152055Z AUTO VRB02KT 9999 FEW110/// BKN220/// 17/16 Q1006 BLU
22:25
V
17 °C 10 km+ 22.000 ft 190° 190° 3 kt METAR EBCV 152025Z AUTO 19003KT 9999 FEW065/// BKN220/// 17/17 Q1006 BLU
21:55
V
18 °C 10 km+ 13.000 ft Var Var 2 kt METAR EBCV 151955Z AUTO VRB02KT 9999 FEW055/// SCT070/// BKN130/// 18/17 Q1006 BLU
21:25
V
18 °C 10 km+ 7.500 ft Var Var 2 kt METAR EBCV 151925Z AUTO VRB02KT 9999 FEW060/// BKN075/// BKN120/// 18/17 Q1006 BLU
20:55
V
18 °C 10 km+ 10.000 ft 080° 080° 7 kt METAR EBCV 151855Z AUTO 08007KT 9999 FEW014/// SCT060/// BKN100/// 18/17 Q1006 BLU
20:46
V
18 °C 10 km+ 7.000 ft 070° 070° 8 kt METAR EBCV 151846Z AUTO 07008KT 9999 -RA FEW014/// SCT050/// BKN070/// 18/17 Q1006 BLU
20:35
L
18 °C 1,3 km 5.000 ft Var Var 2 kt METAR EBCV 151835Z AUTO VRB02KT 1300 +RA FEW042/// BKN050/// OVC100/// 18/17 Q1007 AMB
20:25
I
19 °C 3,2 km 5.000 ft 300° 300° 5 kt METAR EBCV 151825Z AUTO 30005KT 3200 +RA FEW043/// BKN050/// OVC085/// 19/17 Q1007 YLO
20:18
I
19 °C 3,9 km 7.500 ft 290° 290° 10 kt METAR EBCV 151818Z AUTO 29010KT 3900 +RA SCT049/// BKN075/// BKN100/// 19/16 Q1007 GRN
19:55
V
20 °C 10 km+ 8.000 ft 360° 360° 7 kt METAR EBCV 151755Z AUTO 36007KT 9999 FEW055/// BKN080/// BKN100/// 20/17 Q1006 BLU
19:25
V
20 °C 10 km+ 8.000 ft 030° 030° 3 kt METAR EBCV 151725Z AUTO 03003KT 9999 BKN080/// OVC095/// 20/17 Q1006 BLU
18:55
V
21 °C 10 km+ 11.000 ft 360° 360° 4 kt METAR EBCV 151655Z AUTO 36004KT 9999 SCT090/// BKN110/// BKN130/// 21/18 Q1006 BLU
18:25
V
21 °C 10 km+ 15.000 ft 020° 020° 5 kt METAR EBCV 151625Z AUTO 02005KT 9999 FEW033/// SCT130/// BKN150/// 21/18 Q1006 BLU
17:55
V
22 °C 10 km+ 10.000 ft 010° 010° 4 kt METAR EBCV 151555Z AUTO 01004KT 9999 -RA FEW055/// BKN100/// BKN110/// 22/18 Q1007 BLU
17:25
V
24 °C 10 km+ 5.500 ft Var Var 1 kt METAR EBCV 151525Z AUTO VRB01KT 9999 -RA BKN055/// OVC095/// 24/18 Q1008 BLU
16:55
V
25 °C 10 km+ 9.500 ft Var Var 1 kt METAR EBCV 151455Z AUTO VRB01KT 9999 FEW045/// BKN095/// BKN110/// 25/15 Q1008 BLU
16:25
V
24 °C 10 km+ 13.000 ft 140° 140° 4 kt METAR EBCV 151425Z AUTO 14004KT 9999 FEW065/// SCT120/// BKN130/// 24/13 Q1008 BLU
15:55
V
24 °C 10 km+ 14.000 ft 120° 120° 4 kt METAR EBCV 151355Z AUTO 12004KT 9999 SCT100/// BKN140/// 24/14 Q1008 BLU
15:25
V
25 °C 10 km+ - 130° 130° 6 kt METAR EBCV 151325Z AUTO 13006KT 9999 FEW120/// 25/13 Q1008 BLU
14:55
V
25 °C 10 km+ - 100° 100° 8 kt METAR EBCV 151255Z AUTO 10008KT 9999 NCD 25/13 Q1008 BLU
14:25
V
24 °C 10 km+ - 130° 130° 5 kt METAR EBCV 151225Z AUTO 13005KT 9999 FEW120/// 24/13 Q1009 BLU
13:55
V
24 °C 10 km+ - 120° 120° 4 kt METAR EBCV 151155Z AUTO 12004KT 9999 FEW140/// 24/13 Q1009 BLU
13:25
V
24 °C 10 km+ - 140° 140° 5 kt METAR EBCV 151125Z AUTO 14005KT 9999 SCT200/// 24/13 Q1009 BLU
12:55
V
24 °C 10 km+ - 140° 140° 6 kt METAR EBCV 151055Z AUTO 14006KT 9999 FEW110/// SCT210/// 24/13 Q1010 BLU
12:25
V
23 °C 10 km+ - 170° 170° 5 kt METAR EBCV 151025Z AUTO 17005KT 9999 FEW120/// 23/13 Q1010 BLU
11:55
V
22 °C 10 km+ - 120° 120° 7 kt METAR EBCV 150955Z AUTO 12007KT 9999 NCD 22/12 Q1010 BLU
11:25
V
22 °C 10 km+ - 120° 120° 6 kt METAR EBCV 150925Z AUTO 12006KT 9999 FEW110/// 22/13 Q1010 BLU
10:55
V
21 °C 10 km+ 21.000 ft 150° 150° 5 kt METAR EBCV 150855Z AUTO 15005KT 9999 FEW100/// SCT150/// BKN210/// 21/14 Q1011 BLU
10:25
V
21 °C 10 km+ - 130° 130° 6 kt METAR EBCV 150825Z AUTO 13006KT 9999 FEW220/// 21/13 Q1011 BLU
09:55
V
20 °C 10 km+ - 150° 150° 5 kt METAR EBCV 150755Z AUTO 15005KT 9999 FEW100/// 20/14 Q1011 BLU
09:25
V
19 °C 10 km+ 15.000 ft 130° 130° 5 kt METAR EBCV 150725Z AUTO 13005KT 9999 FEW110/// BKN150/// BKN220/// 19/13 Q1011 BLU
08:55
V
18 °C 10 km+ 22.000 ft Var Var 2 kt METAR EBCV 150655Z AUTO VRB02KT 9999 FEW100/// SCT130/// BKN220/// 18/13 Q1012 BLU
08:25
V
17 °C 10 km+ 21.000 ft 140° 140° 4 kt METAR EBCV 150625Z AUTO 14004KT 9999 FEW100/// SCT140/// BKN210/// 17/13 Q1012 BLU
07:55
V
16 °C 10 km+ 21.000 ft 150° 150° 3 kt METAR EBCV 150555Z AUTO 15003KT 9999 FEW110/// SCT130/// BKN210/// 16/13 Q1012 BLU
报告变更